createdAt,value
2018-06-28T00:03:41.470Z,17.200001
2018-06-28T00:08:43.453Z,17.1
2018-06-28T00:13:45.969Z,17.200001
2018-06-28T00:18:48.007Z,17.200001
2018-06-28T00:23:51.576Z,17.200001
2018-06-28T00:28:52.596Z,17.1
2018-06-28T00:33:55.988Z,17.1
2018-06-28T00:38:57.195Z,17.1
2018-06-28T00:43:59.440Z,17.1
2018-06-28T00:49:01.834Z,17.1
2018-06-28T00:54:04.188Z,17
2018-06-28T00:59:06.340Z,16.9
2018-06-28T01:04:08.607Z,17
2018-06-28T01:09:12.505Z,17
2018-06-28T01:14:13.339Z,17
2018-06-28T01:19:15.585Z,16.9
2018-06-28T01:24:17.859Z,16.9
2018-06-28T01:29:20.116Z,16.799999
2018-06-28T01:34:22.533Z,16.700001
2018-06-28T01:39:24.641Z,16.6
2018-06-28T01:44:27.130Z,16.6
2018-06-28T01:49:29.202Z,16.5
2018-06-28T01:54:31.790Z,16.5
2018-06-28T01:59:34.041Z,16.4
2018-06-28T02:04:36.196Z,16.299999
2018-06-28T02:09:38.505Z,16.200001
2018-06-28T02:14:41.910Z,16.200001
2018-06-28T02:19:43.115Z,16.200001
2018-06-28T02:24:45.268Z,16.1
2018-06-28T02:29:47.627Z,16.1
2018-06-28T02:34:49.972Z,16
2018-06-28T02:39:52.372Z,15.9
2018-06-28T02:44:54.465Z,15.9
2018-06-28T02:49:56.790Z,15.7
2018-06-28T02:54:59.260Z,15.7
2018-06-28T03:00:01.411Z,15.7
2018-06-28T03:05:03.691Z,15.6
2018-06-28T03:10:06.021Z,15.6
2018-06-28T03:15:08.256Z,15.5
2018-06-28T03:20:10.623Z,15.5
2018-06-28T03:25:12.952Z,15.4
2018-06-28T03:30:15.227Z,15.5
2018-06-28T03:35:18.871Z,15.5
2018-06-28T03:40:19.867Z,15.5
2018-06-28T03:45:22.091Z,15.5
2018-06-28T03:50:24.482Z,15.5
2018-06-28T03:55:26.684Z,15.4
2018-06-28T04:00:30.302Z,15.4
2018-06-28T04:05:31.274Z,15.4
2018-06-28T04:10:33.604Z,15.4
2018-06-28T04:15:35.847Z,15.4
2018-06-28T04:20:38.105Z,15.4
2018-06-28T04:25:40.593Z,15.5
2018-06-28T04:30:42.696Z,15.6
2018-06-28T04:35:45.112Z,15.6
2018-06-28T04:40:47.382Z,15.7
2018-06-28T04:45:51.457Z,15.8
2018-06-28T04:50:52.019Z,15.9
2018-06-28T04:55:54.281Z,16
2018-06-28T05:00:56.616Z,16.1
2018-06-28T05:06:00.305Z,16.200001
2018-06-28T05:11:01.077Z,16.4
2018-06-28T05:16:03.339Z,16.5
2018-06-28T05:21:05.742Z,16.700001
2018-06-28T05:26:08.046Z,16.799999
2018-06-28T05:31:10.269Z,16.9
2018-06-28T05:36:12.686Z,17.1
2018-06-28T05:41:15.008Z,17.299999
2018-06-28T05:46:17.132Z,17.5
2018-06-28T05:51:20.895Z,17.799999
2018-06-28T05:56:21.679Z,18
2018-06-28T06:01:24.038Z,18.4
2018-06-28T06:06:26.357Z,18.6
2018-06-28T06:11:28.628Z,18.799999
2018-06-28T06:16:30.888Z,19
2018-06-28T06:21:33.321Z,19.4
2018-06-28T06:26:35.585Z,19.700001
2018-06-28T06:31:37.772Z,19.799999
2018-06-28T06:36:40.172Z,20.200001
2018-06-28T06:41:42.332Z,20.5
2018-06-28T06:46:44.665Z,20.799999
2018-06-28T06:51:48.563Z,21.1
2018-06-28T06:56:49.262Z,21.5
2018-06-28T07:01:52.980Z,21.700001
2018-06-28T07:06:55.096Z,22
2018-06-28T07:11:56.260Z,22.4
2018-06-28T07:16:58.420Z,22.6
2018-06-28T07:22:00.851Z,22.9
2018-06-28T07:27:03.043Z,23.4
2018-06-28T07:32:05.461Z,23.799999
2018-06-28T07:37:07.641Z,24.1
2018-06-28T07:42:09.914Z,24.4
2018-06-28T07:47:14.034Z,24.6
2018-06-28T07:52:14.578Z,24.700001
2018-06-28T07:57:17.016Z,24.799999
2018-06-28T08:02:19.073Z,25.299999
2018-06-28T08:07:21.502Z,25.6
2018-06-28T08:12:23.604Z,25.700001
2018-06-28T08:17:26.184Z,26.200001
2018-06-28T08:22:28.204Z,26.6
2018-06-28T08:27:30.517Z,27
2018-06-28T08:32:33.048Z,26.700001
2018-06-28T08:37:37.528Z,27.200001
2018-06-28T08:47:39.810Z,27.299999
2018-06-28T08:52:42.055Z,27.700001
2018-06-28T08:57:45.442Z,27.6
2018-06-28T09:02:46.590Z,27.799999
2018-06-28T09:07:48.909Z,28
2018-06-28T09:12:51.122Z,28.1
2018-06-28T09:17:53.655Z,28.299999
2018-06-28T09:22:55.777Z,28.6
2018-06-28T09:27:58.058Z,28.700001
2018-06-28T09:33:02.048Z,28.799999
2018-06-28T09:38:02.628Z,28.9
2018-06-28T09:43:05.002Z,29
2018-06-28T09:48:07.372Z,29
2018-06-28T09:53:09.606Z,29.700001
2018-06-28T09:58:11.792Z,29.299999
2018-06-28T10:03:14.214Z,29
2018-06-28T10:08:16.344Z,29.200001
2018-06-28T10:13:20.589Z,29.299999
2018-06-28T10:18:21.212Z,29.5
2018-06-28T10:23:23.268Z,29.299999
2018-06-28T10:28:25.639Z,29.700001
2018-06-28T10:33:27.974Z,29.700001
2018-06-28T10:38:30.191Z,30
2018-06-28T10:43:32.744Z,30.299999
2018-06-28T10:48:35.020Z,29.9
2018-06-28T10:53:37.072Z,30.6
2018-06-28T10:58:39.459Z,30.200001
2018-06-28T11:03:41.676Z,30.4
2018-06-28T11:08:43.888Z,30.200001
2018-06-28T11:13:51.919Z,30.299999
2018-06-28T11:18:48.544Z,30.9
2018-06-28T11:23:50.846Z,30.5
2018-06-28T11:28:53.228Z,28.9
2018-06-28T11:33:55.548Z,29.5
2018-06-28T11:38:59.619Z,30.4
2018-06-28T11:44:00.067Z,29.5
2018-06-28T11:49:02.460Z,30.1
2018-06-28T11:54:04.630Z,30.799999
2018-06-28T11:59:06.876Z,31.200001
2018-06-28T12:04:09.224Z,31.200001
2018-06-28T12:09:11.547Z,29.6
2018-06-28T12:14:13.723Z,30
2018-06-28T12:19:16.279Z,31.200001
2018-06-28T12:24:18.403Z,31.799999
2018-06-28T12:29:20.799Z,29.200001
2018-06-28T12:34:23.045Z,29.1
2018-06-28T12:39:25.237Z,28.6
2018-06-28T12:44:27.760Z,28.9
2018-06-28T12:49:30.030Z,31
2018-06-28T12:54:32.237Z,31.200001
2018-06-28T12:59:34.521Z,29.4
2018-06-28T13:04:36.782Z,28.9
2018-06-28T13:09:39.073Z,30.200001
2018-06-28T13:14:41.260Z,31.1
2018-06-28T13:24:45.969Z,31.9
2018-06-28T13:29:48.165Z,31.299999
2018-06-28T13:34:50.594Z,31.700001
2018-06-28T13:39:52.816Z,32.099998
2018-06-28T13:44:55.150Z,32.299999
2018-06-28T13:49:57.390Z,32.700001
2018-06-28T13:54:59.713Z,30.200001
2018-06-28T14:00:01.953Z,30.799999
2018-06-28T14:05:04.346Z,31.200001
2018-06-28T14:10:06.653Z,29.700001
2018-06-28T14:20:11.265Z,31.200001
2018-06-28T14:25:13.356Z,31
2018-06-28T14:30:15.735Z,31.4
2018-06-28T14:35:24.121Z,31.9
2018-06-28T14:40:20.341Z,31.4
2018-06-28T14:45:22.676Z,29.4
2018-06-28T14:50:24.871Z,28
2018-06-28T14:55:27.284Z,29.200001
2018-06-28T15:00:29.430Z,30.700001
2018-06-28T15:05:31.727Z,30.799999
2018-06-28T15:10:34.209Z,29.700001
2018-06-28T15:15:36.770Z,28.4
2018-06-28T15:20:38.692Z,28.4
2018-06-28T15:25:41.035Z,29.700001
2018-06-28T15:30:43.357Z,30.1
2018-06-28T15:35:45.604Z,30.4
2018-06-28T15:40:47.900Z,29.200001
2018-06-28T15:45:50.137Z,27.6
2018-06-28T15:50:52.543Z,26.6
2018-06-28T15:55:54.786Z,26.799999
2018-06-28T16:00:56.998Z,27.9
2018-06-28T16:05:59.428Z,28.700001
2018-06-28T16:11:01.714Z,27.6
2018-06-28T16:16:03.910Z,26.5
2018-06-28T16:21:06.347Z,25.9
2018-06-28T16:26:08.667Z,26.700001
2018-06-28T16:31:10.850Z,27.1
2018-06-28T16:36:13.057Z,27.299999
2018-06-28T16:41:15.491Z,26.5
2018-06-28T16:46:18.079Z,25.700001
2018-06-28T16:51:19.973Z,25.9
2018-06-28T16:56:22.288Z,26.4
2018-06-28T17:01:24.673Z,26.4
2018-06-28T17:06:27.514Z,26.5
2018-06-28T17:11:29.248Z,26.4
2018-06-28T17:16:31.475Z,26.1
2018-06-28T17:21:33.751Z,25.5
2018-06-28T17:26:36.111Z,25.5
2018-06-28T17:31:38.334Z,25.5
2018-06-28T17:36:40.613Z,25.6
2018-06-28T17:41:43.165Z,25.4
2018-06-28T17:46:49.203Z,24.9
2018-06-28T17:51:47.486Z,24.6
2018-06-28T17:56:49.864Z,24.6
2018-06-28T18:01:52.044Z,24.4
2018-06-28T18:06:54.417Z,24.299999
2018-06-28T18:11:56.796Z,24.4
2018-06-28T18:16:58.940Z,24.5
2018-06-28T18:22:01.331Z,24.4
2018-06-28T18:27:04.706Z,24.5
2018-06-28T18:32:05.791Z,24.299999
2018-06-28T18:37:09.260Z,24.200001
2018-06-28T18:42:10.609Z,24
2018-06-28T18:47:12.728Z,23.9
2018-06-28T18:52:15.013Z,23.9
2018-06-28T18:57:18.293Z,23.9
2018-06-28T19:02:19.711Z,23.700001
2018-06-28T19:07:21.948Z,23.5
2018-06-28T19:12:24.275Z,23.4
2018-06-28T19:17:26.559Z,23.4
2018-06-28T19:22:28.775Z,23.299999
2018-06-28T19:27:31.070Z,23.200001
2018-06-28T19:32:33.597Z,23
2018-06-28T19:37:35.706Z,22.9
2018-06-28T19:42:37.982Z,22.799999
2018-06-28T19:47:40.355Z,22.700001
2018-06-28T19:52:42.501Z,22.5
2018-06-28T19:57:44.970Z,22.4
2018-06-28T20:02:47.338Z,22.299999
2018-06-28T20:07:49.420Z,22.1
2018-06-28T20:12:52.883Z,22.1
2018-06-28T20:17:54.119Z,22
2018-06-28T20:22:56.415Z,21.799999
2018-06-28T20:27:58.634Z,21.6
2018-06-28T20:33:00.979Z,21.4
2018-06-28T20:38:03.237Z,21.299999
2018-06-28T20:43:05.674Z,21.200001
2018-06-28T20:48:08.898Z,21.1
2018-06-28T20:53:11.451Z,21
2018-06-28T20:58:12.549Z,21
2018-06-28T21:03:14.946Z,20.799999
2018-06-28T21:08:16.991Z,20.700001
2018-06-28T21:13:19.304Z,20.6
2018-06-28T21:18:21.701Z,20.6
2018-06-28T21:23:23.827Z,20.5
2018-06-28T21:28:26.196Z,20.4
2018-06-28T21:33:28.529Z,20.4
2018-06-28T21:38:30.669Z,20.299999
2018-06-28T21:43:33.047Z,20.299999
2018-06-28T21:48:35.460Z,20.200001
2018-06-28T21:53:37.670Z,20.200001
2018-06-28T21:58:39.981Z,20.1
2018-06-28T22:03:42.285Z,19.9
2018-06-28T22:08:44.514Z,19.799999
2018-06-28T22:13:46.802Z,19.700001
2018-06-28T22:18:49.119Z,19.700001
2018-06-28T22:23:51.426Z,19.6
2018-06-28T22:28:54.193Z,19.5
2018-06-28T22:33:56.012Z,19.5
2018-06-28T22:38:58.332Z,19.5
2018-06-28T22:44:00.574Z,19.299999
2018-06-28T22:49:03.060Z,19.299999
2018-06-28T22:54:05.220Z,19.299999
2018-06-28T22:59:08.901Z,19.200001
2018-06-28T23:04:09.748Z,19.299999
2018-06-28T23:09:12.154Z,19.200001
2018-06-28T23:14:14.328Z,19.200001
2018-06-28T23:19:16.663Z,19.200001
2018-06-28T23:24:19.007Z,19.1
2018-06-28T23:29:21.281Z,19.1
2018-06-28T23:34:25.245Z,19
2018-06-28T23:39:25.882Z,19
2018-06-28T23:44:28.120Z,19
2018-06-28T23:49:31.863Z,18.9
2018-06-28T23:54:32.826Z,18.799999
2018-06-28T23:59:35.039Z,18.700001
